Terminal Aerodrome Forecast
Issued by NWS

Home | Current Version | Previous Version | Text Only | Print | Product List | Glossary On
Versions: 1 2 3 4 5 6 7 8 9 10 11 12 13 14 15 16 17
798
FTUS43 KDLH 031134
TAFBRD
TAF
KBRD 031134Z 0312/0412 25007KT P6SM FEW100 BKN150
     FM031400 27012G18KT P6SM SCT090 BKN130
     FM031800 32016G26KT P6SM SCT080
     FM040200 35007KT P6SM SKC=

USA.gov is the U.S. government's official web portal to all federal, state and local government web resources and services.